createdAt,value
2019-03-10T00:00:29.252Z,98081.92
2019-03-10T00:02:58.619Z,98083.02
2019-03-10T00:05:28.025Z,98094.02
2019-03-10T00:07:57.394Z,98095.50
2019-03-10T00:10:26.799Z,98102.50
2019-03-10T00:12:56.538Z,98108.50
2019-03-10T00:15:25.936Z,98103.87
2019-03-10T00:17:55.315Z,98113.35
2019-03-10T00:20:24.693Z,98117.22
2019-03-10T00:22:54.130Z,98112.22
2019-03-10T00:25:23.616Z,98120.70
2019-03-10T00:27:53.094Z,98125.41
2019-03-10T00:30:22.852Z,98121.42
2019-03-10T00:32:52.589Z,98118.91
2019-03-10T00:35:21.914Z,98120.13
2019-03-10T00:37:51.344Z,98130.14
2019-03-10T00:41:05.056Z,98131.50
2019-03-10T00:44:14.046Z,98135.82
2019-03-10T00:47:15.139Z,98142.27
2019-03-10T00:50:04.683Z,98144.46
2019-03-10T00:52:41.500Z,98146.23
2019-03-10T00:55:10.854Z,98161.14
2019-03-10T00:57:40.258Z,98163.91
2019-03-10T01:00:18.083Z,98160.94
2019-03-10T01:02:47.431Z,98160.94
2019-03-10T01:05:16.794Z,98167.13
2019-03-10T01:07:46.235Z,98168.50
2019-03-10T01:10:15.762Z,98165.19
2019-03-10T01:12:45.638Z,98163.97
2019-03-10T01:15:15.402Z,98170.85
2019-03-10T01:17:46.533Z,98177.30
2019-03-10T01:20:17.121Z,98169.56
2019-03-10T01:22:46.466Z,98175.62
2019-03-10T01:25:16.037Z,98189.88
2019-03-10T01:27:45.506Z,98186.47
2019-03-10T01:30:17.135Z,98194.45
2019-03-10T01:33:14.706Z,98200.06
2019-03-10T01:35:44.286Z,98201.50
2019-03-10T01:38:14.080Z,98202.89
2019-03-10T01:40:43.492Z,98207.94
2019-03-10T01:43:12.873Z,98211.28
2019-03-10T01:45:42.702Z,98218.56
2019-03-10T01:48:12.207Z,98214.84
2019-03-10T01:50:41.576Z,98217.58
2019-03-10T01:53:10.949Z,98214.69
2019-03-10T01:55:40.385Z,98220.68
2019-03-10T01:58:10.094Z,98224.02
2019-03-10T02:00:39.505Z,98224.09
2019-03-10T02:03:08.882Z,98236.35
2019-03-10T02:05:38.303Z,98235.70
2019-03-10T02:08:07.650Z,98236.08
2019-03-10T02:10:36.999Z,98246.66
2019-03-10T02:13:06.393Z,98252.73
2019-03-10T02:15:35.769Z,98252.45
2019-03-10T02:18:05.397Z,98260.64
2019-03-10T02:20:34.712Z,98259.66
2019-03-10T02:23:04.077Z,98259.17
2019-03-10T02:25:33.528Z,98268.58
2019-03-10T02:28:03.277Z,98270.50
2019-03-10T02:30:32.723Z,98266.84
2019-03-10T02:33:02.111Z,98273.39
2019-03-10T02:35:31.470Z,98277.25
2019-03-10T02:38:00.835Z,98272.48
2019-03-10T02:40:30.703Z,98273.53
2019-03-10T02:43:00.082Z,98281.05
2019-03-10T02:45:30.230Z,98279.00
2019-03-10T02:47:59.701Z,98269.73
2019-03-10T02:50:29.063Z,98274.53
2019-03-10T02:52:58.537Z,98280.98
2019-03-10T02:55:27.962Z,98287.77
2019-03-10T02:57:57.327Z,98290.14
2019-03-10T03:00:26.799Z,98300.30
2019-03-10T03:02:56.204Z,98297.55
2019-03-10T03:05:25.709Z,98302.48
2019-03-10T03:07:55.099Z,98299.77
2019-03-10T03:10:24.468Z,98298.75
2019-03-10T03:12:53.854Z,98301.18
2019-03-10T03:15:23.218Z,98316.03
2019-03-10T03:17:52.630Z,98324.89
2019-03-10T03:20:22.104Z,98327.75
2019-03-10T03:22:51.530Z,98330.88
2019-03-10T03:25:20.851Z,98333.27
2019-03-10T03:27:50.349Z,98333.66
2019-03-10T03:30:19.893Z,98342.95
2019-03-10T03:32:49.273Z,98342.13
2019-03-10T03:35:42.805Z,98354.41
2019-03-10T03:38:12.240Z,98348.72
2019-03-10T03:40:43.595Z,98353.26
2019-03-10T03:43:12.939Z,98355.38
2019-03-10T03:45:42.350Z,98365.61
2019-03-10T03:48:11.714Z,98363.48
2019-03-10T03:50:41.162Z,98363.72
2019-03-10T03:53:10.699Z,98366.97
2019-03-10T03:55:40.090Z,98369.67
2019-03-10T03:58:09.475Z,98369.77
2019-03-10T04:00:38.894Z,98375.43
2019-03-10T04:03:08.340Z,98382.55
2019-03-10T04:05:37.752Z,98385.75
2019-03-10T04:08:07.183Z,98390.84
2019-03-10T04:10:36.635Z,98393.74
2019-03-10T04:13:06.072Z,98404.78
2019-03-10T04:15:35.464Z,98404.78
2019-03-10T04:18:04.970Z,98416.14
2019-03-10T04:20:34.308Z,98412.88
2019-03-10T04:23:03.770Z,98419.44
2019-03-10T04:25:33.120Z,98421.69
2019-03-10T04:28:02.544Z,98424.36
2019-03-10T04:30:31.898Z,98418.73
2019-03-10T04:33:01.297Z,98430.91
2019-03-10T04:35:30.656Z,98432.42
2019-03-10T04:38:00.023Z,98438.85
2019-03-10T04:40:29.457Z,98444.51
2019-03-10T04:42:58.954Z,98444.18
2019-03-10T04:45:28.338Z,98454.53
2019-03-10T04:47:57.749Z,98454.53
2019-03-10T04:50:27.155Z,98453.58
2019-03-10T04:52:56.495Z,98468.33
2019-03-10T04:55:39.674Z,98468.33
2019-03-10T04:58:11.393Z,98469.34
2019-03-10T05:00:41.984Z,98475.27
2019-03-10T05:03:11.488Z,98495.26
2019-03-10T05:05:40.844Z,98482.72
2019-03-10T05:08:10.352Z,98487.95
2019-03-10T05:10:39.770Z,98491.03
2019-03-10T05:13:09.242Z,98491.09
2019-03-10T05:15:38.667Z,98496.19
2019-03-10T05:18:08.099Z,98493.42
2019-03-10T05:20:37.465Z,98505.00
2019-03-10T05:23:27.716Z,98510.33
2019-03-10T05:25:59.720Z,98513.74
2019-03-10T05:28:29.763Z,98513.74
2019-03-10T05:30:59.162Z,98516.77
2019-03-10T05:33:28.509Z,98513.41
2019-03-10T05:35:57.839Z,98517.60
2019-03-10T05:38:27.228Z,98515.03
2019-03-10T05:40:56.645Z,98523.50
2019-03-10T05:43:26.134Z,98530.86
2019-03-10T05:45:55.662Z,98531.22
2019-03-10T05:48:25.061Z,98526.41
2019-03-10T05:50:54.458Z,98526.73
2019-03-10T05:53:23.876Z,98532.66
2019-03-10T05:55:53.229Z,98533.86
2019-03-10T05:58:22.617Z,98531.62
2019-03-10T06:00:52.274Z,98537.60
2019-03-10T06:03:21.654Z,98540.51
2019-03-10T06:05:51.482Z,98543.77
2019-03-10T06:08:21.382Z,98544.67
2019-03-10T06:10:50.908Z,98546.35
2019-03-10T06:13:20.310Z,98545.57
2019-03-10T06:15:49.776Z,98553.80
2019-03-10T06:18:19.224Z,98557.55
2019-03-10T06:20:48.624Z,98559.80
2019-03-10T06:23:18.044Z,98561.70
2019-03-10T06:25:47.442Z,98561.97
2019-03-10T06:28:17.754Z,98569.45
2019-03-10T06:30:47.112Z,98573.55
2019-03-10T06:33:16.503Z,98582.30
2019-03-10T06:35:45.991Z,98578.89
2019-03-10T06:38:15.424Z,98578.89
2019-03-10T06:40:44.811Z,98584.25
2019-03-10T06:43:14.213Z,98584.25
2019-03-10T06:45:43.851Z,98581.80
2019-03-10T06:48:13.265Z,98589.97
2019-03-10T06:50:42.654Z,98594.73
2019-03-10T06:53:12.026Z,98587.64
2019-03-10T06:55:41.356Z,98594.61
2019-03-10T06:58:10.967Z,98599.87
2019-03-10T07:00:40.520Z,98602.78
2019-03-10T07:03:09.870Z,98602.70
2019-03-10T07:05:39.305Z,98604.17
2019-03-10T07:08:08.700Z,98610.42
2019-03-10T07:10:38.071Z,98612.34
2019-03-10T07:13:07.784Z,98607.88
2019-03-10T07:15:37.109Z,98615.39
2019-03-10T07:18:06.575Z,98619.86
2019-03-10T07:20:35.961Z,98612.28
2019-03-10T07:23:07.336Z,98616.77
2019-03-10T07:25:36.785Z,98620.97
2019-03-10T07:28:28.066Z,98629.80
2019-03-10T07:31:11.319Z,98633.61
2019-03-10T07:33:49.814Z,98631.55
2019-03-10T07:36:39.336Z,98636.09
2019-03-10T07:39:27.894Z,98638.28
2019-03-10T07:42:13.462Z,98643.41
2019-03-10T07:44:58.049Z,98648.50
2019-03-10T07:47:44.196Z,98650.37
2019-03-10T07:50:32.525Z,98647.27
2019-03-10T07:53:12.191Z,98656.12
2019-03-10T07:56:03.440Z,98653.73
2019-03-10T07:58:57.837Z,98652.79
2019-03-10T08:01:58.075Z,98654.83
2019-03-10T08:04:46.420Z,98657.38
2019-03-10T08:07:55.356Z,98666.80
2019-03-10T08:10:34.175Z,98668.38
2019-03-10T08:13:16.861Z,98662.50
2019-03-10T08:16:08.207Z,98665.27
2019-03-10T08:19:08.775Z,98663.62
2019-03-10T08:22:03.870Z,98660.50
2019-03-10T08:24:55.275Z,98667.70
2019-03-10T08:27:37.349Z,98664.67
2019-03-10T08:30:22.034Z,98675.88
2019-03-10T08:33:25.590Z,98680.34
2019-03-10T08:36:08.042Z,98681.17
2019-03-10T08:39:11.464Z,98683.53
2019-03-10T08:42:02.411Z,98671.98
2019-03-10T08:44:58.923Z,98672.58
2019-03-10T08:47:38.097Z,98678.75
2019-03-10T08:50:13.326Z,98687.34
2019-03-10T08:52:59.576Z,98686.90
2019-03-10T08:55:42.670Z,98684.00
2019-03-10T08:58:25.985Z,98686.13
2019-03-10T09:01:28.952Z,98687.72
2019-03-10T09:04:17.319Z,98682.86
2019-03-10T09:07:09.296Z,98680.94
2019-03-10T09:10:03.686Z,98686.31
2019-03-10T09:12:42.862Z,98685.15
2019-03-10T09:15:28.811Z,98689.12
2019-03-10T09:18:11.973Z,98696.51
2019-03-10T09:21:03.296Z,98699.62
2019-03-10T09:23:47.148Z,98699.62
2019-03-10T09:26:37.728Z,98693.72
2019-03-10T09:29:12.207Z,98698.80
2019-03-10T09:31:59.275Z,98698.13
2019-03-10T09:34:50.713Z,98701.19
2019-03-10T09:37:31.388Z,98704.09
2019-03-10T09:40:25.559Z,98707.33
2019-03-10T09:43:19.994Z,98707.97
2019-03-10T09:46:06.225Z,98712.50
2019-03-10T09:48:57.684Z,98712.69
2019-03-10T09:51:51.865Z,98716.95
2019-03-10T09:54:33.573Z,98708.91
2019-03-10T09:57:12.307Z,98711.89
2019-03-10T10:00:06.972Z,98716.45
2019-03-10T10:02:58.173Z,98714.67
2019-03-10T10:05:35.283Z,98721.95
2019-03-10T10:08:26.805Z,98727.00
2019-03-10T10:11:15.079Z,98725.25
2019-03-10T10:14:02.323Z,98734.16
2019-03-10T10:16:43.471Z,98733.47
2019-03-10T10:19:34.681Z,98743.52
2019-03-10T10:22:12.640Z,98733.40
2019-03-10T10:25:03.918Z,98736.01
2019-03-10T10:27:55.353Z,98742.02
2019-03-10T10:30:35.896Z,98742.30
2019-03-10T10:33:19.579Z,98744.89
2019-03-10T10:36:16.652Z,98744.23
2019-03-10T10:39:05.051Z,98744.92
2019-03-10T10:41:52.109Z,98744.77
2019-03-10T10:44:39.571Z,98744.77
2019-03-10T10:47:33.535Z,98747.10
2019-03-10T10:50:20.899Z,98754.52
2019-03-10T10:53:07.678Z,98750.90
2019-03-10T10:55:56.806Z,98751.65
2019-03-10T10:58:48.053Z,98755.12
2019-03-10T11:01:34.855Z,98757.61
2019-03-10T11:04:21.878Z,98763.27
2019-03-10T11:07:16.254Z,98775.99
2019-03-10T11:10:03.231Z,98774.83
2019-03-10T11:12:49.876Z,98779.30
2019-03-10T11:15:28.468Z,98796.75
2019-03-10T11:18:16.735Z,98794.63
2019-03-10T11:21:03.628Z,98796.21
2019-03-10T11:23:46.094Z,98789.30
2019-03-10T11:26:22.792Z,98784.88
2019-03-10T11:29:08.176Z,98793.77
2019-03-10T11:31:49.155Z,98797.33
2019-03-10T11:34:30.231Z,98797.33
2019-03-10T11:37:21.498Z,98789.44
2019-03-10T11:40:05.614Z,98794.05
2019-03-10T11:43:12.107Z,98792.39
2019-03-10T11:46:03.245Z,98800.08
2019-03-10T11:48:54.377Z,98808.61
2019-03-10T11:51:41.508Z,98818.84
2019-03-10T11:54:32.651Z,98827.73
2019-03-10T11:57:23.054Z,98816.09
2019-03-10T12:00:03.045Z,98816.09
2019-03-10T12:02:39.535Z,98822.28
2019-03-10T12:05:22.086Z,98817.16
2019-03-10T12:08:19.412Z,98817.92
2019-03-10T12:10:48.794Z,98827.21
2019-03-10T12:13:18.182Z,98825.77
2019-03-10T12:15:47.593Z,98830.20
2019-03-10T12:18:16.990Z,98824.03
2019-03-10T12:20:46.368Z,98822.95
2019-03-10T12:23:15.797Z,98828.89
2019-03-10T12:25:45.113Z,98828.89
2019-03-10T12:28:14.605Z,98827.23
2019-03-10T12:30:44.058Z,98803.06
2019-03-10T12:33:13.396Z,98820.47
2019-03-10T12:35:42.766Z,98827.70
2019-03-10T12:38:13.545Z,98827.70
2019-03-10T12:40:44.350Z,98829.91
2019-03-10T12:43:13.752Z,98849.78
2019-03-10T12:45:43.131Z,98842.81
2019-03-10T12:48:12.614Z,98838.23
2019-03-10T12:50:42.143Z,98838.23
2019-03-10T12:53:11.649Z,98837.52
2019-03-10T12:55:41.015Z,98837.52
2019-03-10T12:58:10.461Z,98834.70
2019-03-10T13:00:40.331Z,98836.77
2019-03-10T13:03:09.730Z,98835.44
2019-03-10T13:05:39.271Z,98838.33
2019-03-10T13:08:08.670Z,98842.84
2019-03-10T13:10:38.049Z,98843.45
2019-03-10T13:13:07.420Z,98839.16
2019-03-10T13:15:36.801Z,98848.47
2019-03-10T13:18:06.218Z,98852.80
2019-03-10T13:20:35.593Z,98847.29
2019-03-10T13:23:05.083Z,98847.29
2019-03-10T13:25:34.901Z,98852.28
2019-03-10T13:28:04.252Z,98856.77
2019-03-10T13:30:33.664Z,98856.77
2019-03-10T13:33:03.069Z,98858.75
2019-03-10T13:35:32.418Z,98862.84
2019-03-10T13:38:01.863Z,98870.55
2019-03-10T13:40:31.272Z,98869.58
2019-03-10T13:43:00.975Z,98873.27
2019-03-10T13:45:30.344Z,98888.00
2019-03-10T13:48:00.573Z,98888.00
2019-03-10T13:50:29.990Z,98883.12
2019-03-10T13:52:59.465Z,98874.92
2019-03-10T13:55:28.925Z,98874.92
2019-03-10T13:57:58.590Z,98880.36
2019-03-10T14:00:28.119Z,98886.41
2019-03-10T14:02:57.470Z,98899.85
2019-03-10T14:05:26.833Z,98898.63
2019-03-10T14:07:56.250Z,98896.14
2019-03-10T14:10:25.656Z,98892.83
2019-03-10T14:12:55.185Z,98892.83
2019-03-10T14:15:24.580Z,98891.66
2019-03-10T14:17:54.397Z,98890.69
2019-03-10T14:20:23.780Z,98897.20
2019-03-10T14:22:53.542Z,98903.90
2019-03-10T14:25:22.927Z,98908.95
2019-03-10T14:27:52.369Z,98910.22
2019-03-10T14:30:22.348Z,98910.22
2019-03-10T14:32:51.816Z,98912.59
2019-03-10T14:35:21.274Z,98917.81
2019-03-10T14:37:50.713Z,98917.81
2019-03-10T14:40:20.097Z,98916.07
2019-03-10T14:42:49.663Z,98918.98
2019-03-10T14:45:19.371Z,98918.86
2019-03-10T14:47:49.036Z,98921.50
2019-03-10T14:50:18.649Z,98934.20
2019-03-10T14:52:48.180Z,98932.79
2019-03-10T14:55:17.759Z,98934.75
2019-03-10T14:57:47.139Z,98936.21
2019-03-10T15:00:19.601Z,98939.91
2019-03-10T15:02:48.990Z,98939.91
2019-03-10T15:05:18.381Z,98949.91
2019-03-10T15:07:47.751Z,98949.96
2019-03-10T15:10:17.587Z,98952.34
2019-03-10T15:12:47.095Z,98951.50
2019-03-10T15:15:22.330Z,98951.50
2019-03-10T15:17:48.167Z,98954.92
2019-03-10T15:20:17.777Z,98959.39
2019-03-10T15:22:47.274Z,98959.39
2019-03-10T15:25:16.652Z,98950.41
2019-03-10T15:27:46.049Z,98950.41
2019-03-10T15:30:17.076Z,98951.70
2019-03-10T15:32:46.874Z,98955.76
2019-03-10T15:35:16.369Z,98953.05
2019-03-10T15:37:45.770Z,98957.98
2019-03-10T15:40:15.352Z,98957.98
2019-03-10T15:42:44.916Z,98960.56
2019-03-10T15:45:15.342Z,98961.78
2019-03-10T15:47:44.735Z,98967.21
2019-03-10T15:50:22.077Z,98967.21
2019-03-10T15:52:51.456Z,98971.92
2019-03-10T15:55:20.786Z,98969.52
2019-03-10T15:57:52.983Z,98971.52
2019-03-10T16:00:22.610Z,98977.13
2019-03-10T16:02:51.923Z,98982.60
2019-03-10T16:05:21.556Z,98984.20
2019-03-10T16:07:52.095Z,98979.10
2019-03-10T16:10:21.577Z,98984.66
2019-03-10T16:12:50.945Z,98993.42
2019-03-10T16:15:20.538Z,98888.47
2019-03-10T16:17:50.033Z,98988.94
2019-03-10T16:20:19.393Z,98996.49
2019-03-10T16:22:48.940Z,99001.42
2019-03-10T16:25:18.529Z,99001.42
2019-03-10T16:27:49.924Z,99000.89
2019-03-10T16:30:19.626Z,99001.73
2019-03-10T16:32:48.988Z,99012.84
2019-03-10T16:35:18.580Z,99013.43
2019-03-10T16:37:48.029Z,99014.77
2019-03-10T16:40:17.733Z,99016.77
2019-03-10T16:42:47.193Z,99012.78
2019-03-10T16:45:18.287Z,99013.62
2019-03-10T16:47:47.738Z,99008.13
2019-03-10T16:50:18.157Z,99013.93
2019-03-10T16:52:47.502Z,99014.58
2019-03-10T16:55:16.912Z,99020.91
2019-03-10T16:57:46.646Z,99025.43
2019-03-10T17:00:17.338Z,99023.80
2019-03-10T17:02:46.823Z,99024.25
2019-03-10T17:05:16.291Z,99022.52
2019-03-10T17:07:45.889Z,99021.62
2019-03-10T17:10:15.649Z,99030.59
2019-03-10T17:12:45.264Z,99030.59
2019-03-10T17:15:15.887Z,99041.75
2019-03-10T17:17:45.322Z,99043.55
2019-03-10T17:20:15.639Z,99038.08
2019-03-10T17:22:45.204Z,99048.16
2019-03-10T17:25:14.891Z,99040.56
2019-03-10T17:27:44.508Z,99040.67
2019-03-10T17:30:18.657Z,99043.25
2019-03-10T17:32:48.211Z,99051.83
2019-03-10T17:35:17.829Z,99050.39
2019-03-10T17:37:48.674Z,99052.58
2019-03-10T17:40:18.657Z,99057.73
2019-03-10T17:42:48.250Z,99060.75
2019-03-10T17:45:18.488Z,99069.33
2019-03-10T17:47:47.966Z,99065.91
2019-03-10T17:50:17.610Z,99067.64
2019-03-10T17:52:47.570Z,99069.42
2019-03-10T17:55:17.211Z,99071.81
2019-03-10T17:57:46.876Z,99077.95
2019-03-10T18:00:18.229Z,99086.39
2019-03-10T18:02:47.736Z,99086.58
2019-03-10T18:05:17.123Z,99091.80
2019-03-10T18:07:46.522Z,99082.55
2019-03-10T18:10:15.922Z,99090.45
2019-03-10T18:12:45.764Z,99089.16
2019-03-10T18:15:15.943Z,99090.00
2019-03-10T18:17:45.307Z,99099.13
2019-03-10T18:20:15.218Z,99096.23
2019-03-10T18:22:44.644Z,99098.73
2019-03-10T18:25:14.156Z,99097.89
2019-03-10T18:27:43.549Z,99101.76
2019-03-10T18:30:15.580Z,99107.15
2019-03-10T18:32:45.031Z,99108.73
2019-03-10T18:35:14.580Z,99106.16
2019-03-10T18:37:43.967Z,99115.09
2019-03-10T18:40:15.827Z,99105.97
2019-03-10T18:42:45.226Z,99105.97
2019-03-10T18:45:16.612Z,99114.10
2019-03-10T18:47:46.052Z,99124.91
2019-03-10T18:50:16.436Z,99124.20
2019-03-10T18:52:45.933Z,99126.70
2019-03-10T18:55:16.114Z,99125.09
2019-03-10T18:57:45.925Z,99127.72
2019-03-10T19:00:18.077Z,99131.03
2019-03-10T19:02:47.723Z,99130.19
2019-03-10T19:05:17.326Z,99130.41
2019-03-10T19:07:46.739Z,99134.50
2019-03-10T19:10:16.174Z,99136.62
2019-03-10T19:12:45.627Z,99130.23
2019-03-10T19:15:16.343Z,99138.59
2019-03-10T19:17:45.811Z,99137.30
2019-03-10T19:20:15.258Z,99141.74
2019-03-10T19:22:44.669Z,99138.72
2019-03-10T19:25:14.384Z,99138.81
2019-03-10T19:27:43.905Z,99142.46
2019-03-10T19:30:15.396Z,99146.47
2019-03-10T19:32:44.850Z,99141.66
2019-03-10T19:35:14.598Z,99147.27
2019-03-10T19:37:44.293Z,99143.17
2019-03-10T19:40:14.490Z,99149.27
2019-03-10T19:42:43.899Z,99151.97
2019-03-10T19:45:14.433Z,99147.84
2019-03-10T19:47:43.964Z,99146.68
2019-03-10T19:50:14.226Z,99157.03
2019-03-10T19:52:43.663Z,99153.17
2019-03-10T19:55:13.403Z,99154.95
2019-03-10T19:57:42.817Z,99155.25
2019-03-10T20:00:14.093Z,99157.88
2019-03-10T20:02:43.894Z,99162.67
2019-03-10T20:05:13.326Z,99167.50
2019-03-10T20:07:43.136Z,99163.50
2019-03-10T20:10:13.632Z,99160.17
2019-03-10T20:12:43.218Z,99164.08
2019-03-10T20:15:14.610Z,99179.48
2019-03-10T20:17:44.098Z,99167.45
2019-03-10T20:20:14.876Z,99176.67
2019-03-10T20:22:44.579Z,99174.27
2019-03-10T20:25:14.824Z,99185.41
2019-03-10T20:27:44.647Z,99181.55
2019-03-10T20:30:16.636Z,99169.00
2019-03-10T20:32:46.083Z,99179.30
2019-03-10T20:35:15.575Z,99179.73
2019-03-10T20:37:45.541Z,99177.77
2019-03-10T20:40:16.279Z,99188.91
2019-03-10T20:42:45.741Z,99186.59
2019-03-10T20:45:15.376Z,99198.13
2019-03-10T20:47:45.021Z,99188.48
2019-03-10T20:50:15.356Z,99193.91
2019-03-10T20:52:45.295Z,99184.17
2019-03-10T20:55:14.932Z,99188.61
2019-03-10T20:57:44.674Z,99203.13
2019-03-10T21:00:16.472Z,99186.19
2019-03-10T21:02:45.851Z,99203.13
2019-03-10T21:05:15.847Z,99190.20
2019-03-10T21:07:45.711Z,99190.20
2019-03-10T21:10:15.813Z,99187.97
2019-03-10T21:12:45.644Z,99194.72
2019-03-10T21:15:16.381Z,99196.48
2019-03-10T21:17:46.099Z,99199.22
2019-03-10T21:20:16.678Z,99199.22
2019-03-10T21:22:46.067Z,99204.48
2019-03-10T21:25:19.773Z,99210.48
2019-03-10T21:27:49.237Z,99209.06
2019-03-10T21:30:20.554Z,99209.06
2019-03-10T21:32:50.453Z,99217.19
2019-03-10T21:35:19.958Z,99214.69
2019-03-10T21:37:49.350Z,99204.55
2019-03-10T21:40:20.423Z,99222.53
2019-03-10T21:42:49.779Z,99221.80
2019-03-10T21:45:19.135Z,99221.80
2019-03-10T21:47:48.506Z,99215.92
2019-03-10T21:50:18.076Z,99220.14
2019-03-10T21:52:47.647Z,99225.25
2019-03-10T21:55:17.230Z,99235.55
2019-03-10T21:57:47.391Z,99225.48
2019-03-10T22:00:17.046Z,99225.48
2019-03-10T22:02:46.430Z,99237.91
2019-03-10T22:05:15.793Z,99237.91
2019-03-10T22:07:45.199Z,99246.75
2019-03-10T22:10:25.841Z,99246.75
2019-03-10T22:12:46.073Z,99253.41
2019-03-10T22:15:15.755Z,99253.41
2019-03-10T22:17:45.234Z,99262.02
2019-03-10T22:20:14.825Z,99261.13
2019-03-10T22:22:49.131Z,99131.72
2019-03-10T22:25:15.546Z,99255.28
2019-03-10T22:27:46.090Z,99255.28
2019-03-10T22:30:16.605Z,99254.37
2019-03-10T22:32:46.097Z,99267.59
2019-03-10T22:35:15.578Z,99261.72
2019-03-10T22:37:44.949Z,99261.72
2019-03-10T22:40:14.734Z,99270.31
2019-03-10T22:42:44.109Z,99154.55
2019-03-10T22:45:14.414Z,99154.55
2019-03-10T22:47:43.954Z,99267.89
2019-03-10T22:50:13.864Z,99278.61
2019-03-10T22:52:43.249Z,99280.02
2019-03-10T22:55:12.978Z,99281.81
2019-03-10T22:57:42.426Z,99281.81
2019-03-10T23:00:16.936Z,99271.55
2019-03-10T23:02:46.306Z,99279.38
2019-03-10T23:05:15.716Z,99272.06
2019-03-10T23:07:45.258Z,99272.06
2019-03-10T23:10:14.838Z,99281.84
2019-03-10T23:12:44.637Z,99269.30
2019-03-10T23:15:14.430Z,99269.34
2019-03-10T23:17:45.898Z,99269.34
2019-03-10T23:20:15.316Z,99283.04
2019-03-10T23:22:44.977Z,99278.00
2019-03-10T23:25:14.473Z,99282.03
2019-03-10T23:27:44.077Z,99284.06
2019-03-10T23:30:14.546Z,99299.11
2019-03-10T23:32:43.963Z,99294.14
2019-03-10T23:35:13.648Z,99283.92
2019-03-10T23:37:43.207Z,99283.92
2019-03-10T23:40:12.756Z,99290.79
2019-03-10T23:42:42.236Z,99299.69
2019-03-10T23:45:11.855Z,99299.69
2019-03-10T23:47:42.543Z,99308.11
2019-03-10T23:50:12.418Z,99308.11
2019-03-10T23:52:41.978Z,99297.08
2019-03-10T23:55:11.667Z,99310.34
2019-03-10T23:57:41.209Z,99305.33
